sensor_id;sensor_type;location;lat;lon;timestamp;pressure;altitude;pressure_sealevel;temperature;humidity
27980;BME280;15315;50.836;4.430;2023-05-01T00:09:04;101133.72;;;19.00;51.01
27980;BME280;15315;50.836;4.430;2023-05-01T00:19:06;101123.69;;;19.18;51.06
27980;BME280;15315;50.836;4.430;2023-05-01T00:29:07;101122.94;;;18.98;52.23
27980;BME280;15315;50.836;4.430;2023-05-01T00:39:07;101104.91;;;19.05;52.15
27980;BME280;15315;50.836;4.430;2023-05-01T00:49:08;101088.59;;;18.96;51.75
27980;BME280;15315;50.836;4.430;2023-05-01T00:59:09;101074.59;;;18.81;51.64
27980;BME280;15315;50.836;4.430;2023-05-01T01:19:35;101059.59;;;18.85;52.14
27980;BME280;15315;50.836;4.430;2023-05-01T01:40:18;101035.13;;;18.66;56.69
27980;BME280;15315;50.836;4.430;2023-05-01T01:50:23;101019.44;;;18.68;56.95
27980;BME280;15315;50.836;4.430;2023-05-01T02:00:25;101014.84;;;18.69;56.42
27980;BME280;15315;50.836;4.430;2023-05-01T02:10:28;101005.44;;;18.81;56.44
27980;BME280;15315;50.836;4.430;2023-05-01T02:20:29;100991.69;;;18.73;57.21
27980;BME280;15315;50.836;4.430;2023-05-01T02:30:30;100979.34;;;18.59;58.24
27980;BME280;15315;50.836;4.430;2023-05-01T02:40:30;100967.81;;;18.47;58.83
27980;BME280;15315;50.836;4.430;2023-05-01T02:50:33;100967.88;;;18.38;59.10
27980;BME280;15315;50.836;4.430;2023-05-01T03:00:33;100956.13;;;18.28;60.33
27980;BME280;15315;50.836;4.430;2023-05-01T03:10:34;100946.53;;;17.77;63.18
27980;BME280;15315;50.836;4.430;2023-05-01T03:20:34;100943.16;;;17.66;63.80
27980;BME280;15315;50.836;4.430;2023-05-01T03:30:35;100939.44;;;18.04;63.02
27980;BME280;15315;50.836;4.430;2023-05-01T03:40:35;100933.91;;;17.86;63.83
27980;BME280;15315;50.836;4.430;2023-05-01T03:50:36;100931.75;;;17.89;64.02
27980;BME280;15315;50.836;4.430;2023-05-01T04:00:36;100928.56;;;17.94;64.03
27980;BME280;15315;50.836;4.430;2023-05-01T04:10:36;100919.88;;;18.08;63.93
27980;BME280;15315;50.836;4.430;2023-05-01T04:20:37;100921.34;;;18.03;64.22
27980;BME280;15315;50.836;4.430;2023-05-01T04:30:39;100924.00;;;17.95;64.45
27980;BME280;15315;50.836;4.430;2023-05-01T04:40:39;100916.38;;;17.88;64.97
27980;BME280;15315;50.836;4.430;2023-05-01T04:50:40;100920.13;;;17.78;65.71
27980;BME280;15315;50.836;4.430;2023-05-01T05:00:40;100922.59;;;17.71;66.01
27980;BME280;15315;50.836;4.430;2023-05-01T05:10:40;100926.50;;;17.69;66.58
27980;BME280;15315;50.836;4.430;2023-05-01T05:20:41;100935.19;;;17.91;66.33
27980;BME280;15315;50.836;4.430;2023-05-01T05:30:41;100942.06;;;17.96;66.54
27980;BME280;15315;50.836;4.430;2023-05-01T05:40:42;100939.94;;;18.17;65.81
27980;BME280;15315;50.836;4.430;2023-05-01T05:50:42;100942.31;;;18.29;65.15
27980;BME280;15315;50.836;4.430;2023-05-01T06:00:43;100948.09;;;18.26;65.28
27980;BME280;15315;50.836;4.430;2023-05-01T06:10:43;100931.00;;;18.24;65.45
27980;BME280;15315;50.836;4.430;2023-05-01T06:20:44;100929.09;;;18.52;65.18
27980;BME280;15315;50.836;4.430;2023-05-01T06:30:44;100934.50;;;18.89;63.08
27980;BME280;15315;50.836;4.430;2023-05-01T06:40:47;100935.72;;;19.12;61.60
27980;BME280;15315;50.836;4.430;2023-05-01T06:50:48;100935.25;;;19.16;59.68
27980;BME280;15315;50.836;4.430;2023-05-01T07:00:48;100935.88;;;19.10;58.46
27980;BME280;15315;50.836;4.430;2023-05-01T07:10:49;100936.31;;;19.24;59.12
27980;BME280;15315;50.836;4.430;2023-05-01T07:20:49;100944.72;;;19.04;61.19
27980;BME280;15315;50.836;4.430;2023-05-01T07:30:50;100947.06;;;19.86;59.82
27980;BME280;15315;50.836;4.430;2023-05-01T07:40:53;100953.63;;;20.27;58.83
27980;BME280;15315;50.836;4.430;2023-05-01T07:50:55;100952.00;;;20.58;57.82
27980;BME280;15315;50.836;4.430;2023-05-01T08:00:56;100952.53;;;20.12;58.90
27980;BME280;15315;50.836;4.430;2023-05-01T08:10:56;100956.28;;;19.59;59.54
27980;BME280;15315;50.836;4.430;2023-05-01T08:20:56;100964.97;;;19.81;60.76
27980;BME280;15315;50.836;4.430;2023-05-01T08:30:57;100966.19;;;20.95;58.67
27980;BME280;15315;50.836;4.430;2023-05-01T08:40:57;100969.28;;;21.09;58.17
27980;BME280;15315;50.836;4.430;2023-05-01T08:51:01;100972.28;;;20.73;59.14
27980;BME280;15315;50.836;4.430;2023-05-01T09:01:03;100965.00;;;21.30;57.25
27980;BME280;15315;50.836;4.430;2023-05-01T09:11:04;100978.84;;;20.47;57.03
27980;BME280;15315;50.836;4.430;2023-05-01T09:21:05;100983.47;;;20.46;58.99
27980;BME280;15315;50.836;4.430;2023-05-01T09:31:24;100987.19;;;20.71;59.37
27980;BME280;15315;50.836;4.430;2023-05-01T09:41:27;100995.66;;;21.10;59.35
27980;BME280;15315;50.836;4.430;2023-05-01T09:51:31;100995.84;;;20.58;60.77
27980;BME280;15315;50.836;4.430;2023-05-01T10:01:40;101001.72;;;20.29;59.75
27980;BME280;15315;50.836;4.430;2023-05-01T10:11:51;101015.91;;;21.25;57.53
27980;BME280;15315;50.836;4.430;2023-05-01T10:21:52;101006.81;;;22.21;56.13
27980;BME280;15315;50.836;4.430;2023-05-01T10:31:54;101009.03;;;22.17;53.48
27980;BME280;15315;50.836;4.430;2023-05-01T11:01:58;101020.88;;;22.18;52.16
27980;BME280;15315;50.836;4.430;2023-05-01T11:11:58;101027.97;;;21.80;54.78
27980;BME280;15315;50.836;4.430;2023-05-01T11:21:58;101023.28;;;21.24;56.29
27980;BME280;15315;50.836;4.430;2023-05-01T11:31:59;101016.66;;;21.67;54.98
27980;BME280;15315;50.836;4.430;2023-05-01T11:42:07;101007.16;;;21.37;55.83
27980;BME280;15315;50.836;4.430;2023-05-01T11:52:08;101019.50;;;21.25;52.68
27980;BME280;15315;50.836;4.430;2023-05-01T12:02:17;101012.03;;;21.51;52.70
27980;BME280;15315;50.836;4.430;2023-05-01T12:12:18;101006.69;;;22.92;48.14
27980;BME280;15315;50.836;4.430;2023-05-01T12:22:19;100998.56;;;22.21;48.86
27980;BME280;15315;50.836;4.430;2023-05-01T12:32:28;101003.59;;;22.48;47.61
27980;BME280;15315;50.836;4.430;2023-05-01T12:42:29;101004.19;;;22.28;48.06
27980;BME280;15315;50.836;4.430;2023-05-01T12:52:30;101000.84;;;21.85;49.00
27980;BME280;15315;50.836;4.430;2023-05-01T13:02:32;101011.78;;;22.01;47.29
27980;BME280;15315;50.836;4.430;2023-05-01T13:12:42;101008.09;;;22.41;47.15
27980;BME280;15315;50.836;4.430;2023-05-01T13:22:43;101012.53;;;22.42;47.27
27980;BME280;15315;50.836;4.430;2023-05-01T13:32:45;101018.88;;;21.63;48.49
27980;BME280;15315;50.836;4.430;2023-05-01T13:42:45;101032.72;;;22.27;47.41
27980;BME280;15315;50.836;4.430;2023-05-01T13:52:47;101027.06;;;21.23;49.37
27980;BME280;15315;50.836;4.430;2023-05-01T14:02:47;101025.22;;;21.80;48.62
27980;BME280;15315;50.836;4.430;2023-05-01T14:12:48;101028.44;;;22.00;47.21
27980;BME280;15315;50.836;4.430;2023-05-01T14:22:48;101039.47;;;20.85;48.78
27980;BME280;15315;50.836;4.430;2023-05-01T14:32:50;101030.06;;;20.54;49.60
27980;BME280;15315;50.836;4.430;2023-05-01T14:42:53;101027.22;;;21.30;49.30
27980;BME280;15315;50.836;4.430;2023-05-01T14:52:55;101013.03;;;22.93;45.97
27980;BME280;15315;50.836;4.430;2023-05-01T15:02:57;101020.91;;;22.65;45.98
27980;BME280;15315;50.836;4.430;2023-05-01T15:12:58;101034.25;;;22.29;47.32
27980;BME280;15315;50.836;4.430;2023-05-01T15:22:58;101035.78;;;22.78;45.57
27980;BME280;15315;50.836;4.430;2023-05-01T15:32:59;101051.63;;;21.89;47.61
27980;BME280;15315;50.836;4.430;2023-05-01T15:43:00;101048.19;;;21.95;47.68
27980;BME280;15315;50.836;4.430;2023-05-01T15:53:00;101066.38;;;21.80;48.64
27980;BME280;15315;50.836;4.430;2023-05-01T16:03:00;101078.69;;;22.24;46.59
27980;BME280;15315;50.836;4.430;2023-05-01T16:13:03;101092.13;;;19.68;52.15
27980;BME280;15315;50.836;4.430;2023-05-01T16:23:07;101098.28;;;21.89;48.22
27980;BME280;15315;50.836;4.430;2023-05-01T16:33:17;101097.59;;;23.52;43.82
27980;BME280;15315;50.836;4.430;2023-05-01T16:43:20;101118.34;;;23.63;43.01
27980;BME280;15315;50.836;4.430;2023-05-01T16:53:21;101120.59;;;27.32;39.70
27980;BME280;15315;50.836;4.430;2023-05-01T17:03:22;101127.75;;;26.44;39.17
27980;BME280;15315;50.836;4.430;2023-05-01T17:13:23;101136.06;;;27.60;38.16
27980;BME280;15315;50.836;4.430;2023-05-01T17:23:23;101142.03;;;25.99;39.82
27980;BME280;15315;50.836;4.430;2023-05-01T17:33:30;101155.25;;;26.80;39.71
27980;BME280;15315;50.836;4.430;2023-05-01T17:43:30;101167.63;;;24.26;43.17
27980;BME280;15315;50.836;4.430;2023-05-01T17:53:30;101179.59;;;21.66;48.02
27980;BME280;15315;50.836;4.430;2023-05-01T18:03:31;101184.88;;;21.51;48.50
27980;BME280;15315;50.836;4.430;2023-05-01T18:13:32;101191.22;;;19.80;52.61
27980;BME280;15315;50.836;4.430;2023-05-01T18:23:37;101207.94;;;19.95;53.55
27980;BME280;15315;50.836;4.430;2023-05-01T18:33:38;101216.94;;;20.05;53.55
27980;BME280;15315;50.836;4.430;2023-05-01T18:43:38;101233.84;;;19.28;56.80
27980;BME280;15315;50.836;4.430;2023-05-01T18:53:39;101241.53;;;18.78;59.00
27980;BME280;15315;50.836;4.430;2023-05-01T19:03:39;101243.97;;;18.72;59.99
27980;BME280;15315;50.836;4.430;2023-05-01T19:13:40;101263.41;;;18.69;60.01
27980;BME280;15315;50.836;4.430;2023-05-01T19:33:42;101283.53;;;18.39;61.26
27980;BME280;15315;50.836;4.430;2023-05-01T19:43:42;101312.13;;;18.35;61.69
27980;BME280;15315;50.836;4.430;2023-05-01T19:53:43;101322.34;;;18.81;60.59
27980;BME280;15315;50.836;4.430;2023-05-01T20:03:43;101344.34;;;17.52;66.81
27980;BME280;15315;50.836;4.430;2023-05-01T20:13:43;101356.75;;;18.05;65.76
27980;BME280;15315;50.836;4.430;2023-05-01T20:23:45;101362.63;;;18.01;67.30
27980;BME280;15315;50.836;4.430;2023-05-01T20:33:45;101364.94;;;17.65;70.14
27980;BME280;15315;50.836;4.430;2023-05-01T20:43:45;101372.09;;;17.36;72.50
27980;BME280;15315;50.836;4.430;2023-05-01T20:53:46;101377.50;;;17.26;73.96
27980;BME280;15315;50.836;4.430;2023-05-01T21:03:46;101380.59;;;17.63;72.72
27980;BME280;15315;50.836;4.430;2023-05-01T21:13:47;101403.28;;;17.13;75.62
27980;BME280;15315;50.836;4.430;2023-05-01T21:23:47;101405.22;;;17.31;74.77
27980;BME280;15315;50.836;4.430;2023-05-01T21:33:48;101413.50;;;17.41;74.25
27980;BME280;15315;50.836;4.430;2023-05-01T21:43:48;101415.38;;;16.88;76.93
27980;BME280;15315;50.836;4.430;2023-05-01T21:53:49;101410.44;;;17.65;72.29
27980;BME280;15315;50.836;4.430;2023-05-01T22:03:50;101429.25;;;17.17;74.40
27980;BME280;15315;50.836;4.430;2023-05-01T22:13:50;101436.53;;;17.16;74.64
27980;BME280;15315;50.836;4.430;2023-05-01T22:23:50;101453.03;;;17.36;74.02
27980;BME280;15315;50.836;4.430;2023-05-01T22:33:51;101454.03;;;17.14;75.14
27980;BME280;15315;50.836;4.430;2023-05-01T22:43:52;101456.72;;;16.61;78.66
27980;BME280;15315;50.836;4.430;2023-05-01T22:53:52;101481.31;;;17.03;75.69
27980;BME280;15315;50.836;4.430;2023-05-01T23:03:53;101485.84;;;16.82;77.33
27980;BME280;15315;50.836;4.430;2023-05-01T23:13:54;101501.31;;;16.81;77.91
27980;BME280;15315;50.836;4.430;2023-05-01T23:23:54;101489.41;;;16.50;80.23
27980;BME280;15315;50.836;4.430;2023-05-01T23:33:55;101502.22;;;16.70;78.98
27980;BME280;15315;50.836;4.430;2023-05-01T23:43:55;101511.91;;;16.52;80.38
27980;BME280;15315;50.836;4.430;2023-05-01T23:53:56;101525.81;;;16.27;83.02
